createdAt,value
2023-02-07T00:01:22.731Z,-7.76
2023-02-07T00:03:49.617Z,-7.76
2023-02-07T00:06:25.904Z,-7.72
2023-02-07T00:08:52.877Z,-7.66
2023-02-07T00:11:23.124Z,-7.64
2023-02-07T00:13:53.070Z,-7.66
2023-02-07T00:16:20.588Z,-7.60
2023-02-07T00:18:47.649Z,-7.62
2023-02-07T00:21:17.159Z,-7.62
2023-02-07T00:23:44.944Z,-7.63
2023-02-07T00:26:13.509Z,-7.65
2023-02-07T00:28:40.165Z,-7.69
2023-02-07T00:31:16.518Z,-7.74
2023-02-07T00:33:45.007Z,-7.79
2023-02-07T00:36:14.817Z,-7.81
2023-02-07T00:38:41.720Z,-7.82
2023-02-07T00:41:09.000Z,-7.83
2023-02-07T00:43:35.781Z,-7.82
2023-02-07T00:46:05.561Z,-7.85
2023-02-07T00:48:33.012Z,-7.85
2023-02-07T00:51:00.596Z,-7.85
2023-02-07T00:53:28.468Z,-7.85
2023-02-07T00:55:55.320Z,-7.88
2023-02-07T00:58:22.089Z,-7.91
2023-02-07T01:00:49.431Z,-7.91
2023-02-07T01:03:16.388Z,-7.99
2023-02-07T01:05:43.168Z,-8.06
2023-02-07T01:08:09.829Z,-8.06
2023-02-07T01:10:38.801Z,-8.04
2023-02-07T01:13:05.335Z,-8.01
2023-02-07T01:15:32.286Z,-8.04
2023-02-07T01:17:58.866Z,-8.04
2023-02-07T01:20:25.494Z,-8.02
2023-02-07T01:22:52.694Z,-8.00
2023-02-07T01:25:19.288Z,-7.97
2023-02-07T01:27:45.917Z,-7.98
2023-02-07T01:30:13.032Z,-8.00
2023-02-07T01:32:39.584Z,-8.01
2023-02-07T01:35:06.699Z,-8.00
2023-02-07T01:37:33.550Z,-7.97
2023-02-07T01:40:00.718Z,-7.92
2023-02-07T01:42:28.805Z,-7.91
2023-02-07T01:44:55.306Z,-7.91
2023-02-07T01:47:23.456Z,-7.93
2023-02-07T01:49:53.033Z,-7.96
2023-02-07T01:52:29.517Z,-7.98
2023-02-07T01:55:01.433Z,-8.02
2023-02-07T01:57:28.610Z,-8.04
2023-02-07T01:59:58.336Z,-8.19
2023-02-07T02:02:30.919Z,-8.25
2023-02-07T02:04:59.074Z,-8.33
2023-02-07T02:07:28.687Z,-8.29
2023-02-07T02:09:55.467Z,-8.28
2023-02-07T02:12:43.530Z,-8.33
2023-02-07T02:15:16.005Z,-8.35
2023-02-07T02:17:57.914Z,-8.36
2023-02-07T02:20:55.110Z,-8.43
2023-02-07T02:23:48.989Z,-8.47
2023-02-07T02:26:27.611Z,-8.53
2023-02-07T02:29:07.392Z,-8.71
2023-02-07T02:32:09.455Z,-8.79
2023-02-07T02:34:47.876Z,-8.91
2023-02-07T02:37:54.189Z,-9.01
2023-02-07T02:40:34.208Z,-9.04
2023-02-07T02:43:46.627Z,-9.09
2023-02-07T02:46:25.393Z,-9.04
2023-02-07T02:48:53.557Z,-8.98
2023-02-07T02:51:20.168Z,-8.90
2023-02-07T02:53:57.844Z,-8.83
2023-02-07T02:56:27.140Z,-8.87
2023-02-07T02:59:05.879Z,-8.98
2023-02-07T03:01:38.521Z,-9.09
2023-02-07T03:04:34.277Z,-9.17
2023-02-07T03:07:19.141Z,-9.04
2023-02-07T03:10:00.195Z,-8.98
2023-02-07T03:12:48.080Z,-8.86
2023-02-07T03:15:35.729Z,-8.84
2023-02-07T03:18:11.814Z,-8.90
2023-02-07T03:20:52.839Z,-8.91
2023-02-07T03:23:21.367Z,-8.86
2023-02-07T03:25:51.690Z,-8.83
2023-02-07T03:28:20.701Z,-8.83
2023-02-07T03:30:51.285Z,-8.85
2023-02-07T03:33:19.338Z,-8.83
2023-02-07T03:35:56.793Z,-8.78
2023-02-07T03:38:24.453Z,-8.74
2023-02-07T03:41:03.245Z,-8.70
2023-02-07T03:43:32.404Z,-8.67
2023-02-07T03:45:59.541Z,-8.71
2023-02-07T03:48:26.191Z,-8.84
2023-02-07T03:50:52.999Z,-8.92
2023-02-07T03:53:21.020Z,-9.00
2023-02-07T03:55:47.817Z,-9.10
2023-02-07T03:58:14.574Z,-9.22
2023-02-07T04:00:41.213Z,-9.22
2023-02-07T04:03:07.801Z,-9.19
2023-02-07T04:05:34.727Z,-9.01
2023-02-07T04:08:01.421Z,-8.92
2023-02-07T04:10:28.155Z,-8.84
2023-02-07T04:12:54.740Z,-8.78
2023-02-07T04:15:21.490Z,-8.74
2023-02-07T04:17:48.051Z,-8.72
2023-02-07T04:20:14.768Z,-8.73
2023-02-07T04:22:41.361Z,-8.68
2023-02-07T04:25:08.386Z,-8.65
2023-02-07T04:27:34.996Z,-8.61
2023-02-07T04:30:01.596Z,-8.60
2023-02-07T04:32:28.215Z,-8.56
2023-02-07T04:34:54.854Z,-8.57
2023-02-07T04:37:21.412Z,-8.56
2023-02-07T04:39:48.056Z,-8.52
2023-02-07T04:42:14.625Z,-8.45
2023-02-07T04:44:41.191Z,-8.39
2023-02-07T04:47:07.773Z,-8.37
2023-02-07T04:49:34.860Z,-8.34
2023-02-07T04:52:01.653Z,-8.29
2023-02-07T04:54:28.287Z,-8.26
2023-02-07T04:56:54.904Z,-8.27
2023-02-07T04:59:21.477Z,-8.30
2023-02-07T05:01:48.032Z,-8.29
2023-02-07T05:04:15.951Z,-8.31
2023-02-07T05:06:43.037Z,-8.29
2023-02-07T05:09:09.606Z,-8.25
2023-02-07T05:11:36.233Z,-8.23
2023-02-07T05:14:02.808Z,-8.17
2023-02-07T05:16:29.453Z,-8.14
2023-02-07T05:18:56.033Z,-8.13
2023-02-07T05:21:22.701Z,-8.12
2023-02-07T05:23:49.330Z,-8.14
2023-02-07T05:26:17.177Z,-8.15
2023-02-07T05:28:44.147Z,-8.17
2023-02-07T05:31:10.857Z,-8.20
2023-02-07T05:33:37.472Z,-8.25
2023-02-07T05:36:05.102Z,-8.29
2023-02-07T05:38:32.727Z,-8.30
2023-02-07T05:40:59.850Z,-8.31
2023-02-07T05:43:26.515Z,-8.32
2023-02-07T05:45:53.092Z,-8.34
2023-02-07T05:48:19.694Z,-8.39
2023-02-07T05:50:46.285Z,-8.39
2023-02-07T05:53:13.069Z,-8.40
2023-02-07T05:55:40.045Z,-8.42
2023-02-07T05:58:06.814Z,-8.42
2023-02-07T06:00:33.753Z,-8.46
2023-02-07T06:03:00.319Z,-8.50
2023-02-07T06:05:31.630Z,-8.52
2023-02-07T06:07:58.517Z,-8.57
2023-02-07T06:10:25.246Z,-8.57
2023-02-07T06:12:51.825Z,-8.59
2023-02-07T06:15:18.619Z,-8.62
2023-02-07T06:17:45.223Z,-8.66
2023-02-07T06:20:12.199Z,-8.68
2023-02-07T06:22:39.002Z,-8.72
2023-02-07T06:25:05.969Z,-8.77
2023-02-07T06:27:32.547Z,-8.80
2023-02-07T06:29:59.094Z,-8.80
2023-02-07T06:32:25.784Z,-8.79
2023-02-07T06:34:52.456Z,-8.78
2023-02-07T06:37:19.020Z,-8.79
2023-02-07T06:39:45.595Z,-8.78
2023-02-07T06:42:12.304Z,-8.78
2023-02-07T06:44:38.829Z,-8.73
2023-02-07T06:47:05.548Z,-8.69
2023-02-07T06:49:32.255Z,-8.66
2023-02-07T06:51:58.937Z,-8.63
2023-02-07T06:54:25.502Z,-8.58
2023-02-07T06:56:52.073Z,-8.53
2023-02-07T06:59:18.682Z,-8.46
2023-02-07T07:01:46.774Z,-8.41
2023-02-07T07:04:14.522Z,-8.36
2023-02-07T07:06:41.439Z,-8.29
2023-02-07T07:09:08.029Z,-8.24
2023-02-07T07:11:35.507Z,-8.15
2023-02-07T07:14:02.704Z,-8.07
2023-02-07T07:16:29.387Z,-7.99
2023-02-07T07:18:55.954Z,-7.90
2023-02-07T07:21:22.550Z,-7.80
2023-02-07T07:23:49.131Z,-7.68
2023-02-07T07:26:15.799Z,-7.57
2023-02-07T07:28:42.372Z,-7.45
2023-02-07T07:31:09.387Z,-7.35
2023-02-07T07:33:36.879Z,-7.23
2023-02-07T07:36:04.156Z,-7.09
2023-02-07T07:38:31.553Z,-6.98
2023-02-07T07:40:58.815Z,-6.82
2023-02-07T07:43:25.873Z,-6.71
2023-02-07T07:45:57.432Z,-6.61
2023-02-07T07:48:24.684Z,-6.51
2023-02-07T07:50:52.186Z,-6.39
2023-02-07T07:53:19.765Z,-6.27
2023-02-07T07:55:55.208Z,-6.16
2023-02-07T07:58:23.348Z,-6.02
2023-02-07T08:00:50.447Z,-5.89
2023-02-07T08:03:19.226Z,-5.76
2023-02-07T08:05:46.962Z,-5.67
2023-02-07T08:08:14.222Z,-5.51
2023-02-07T08:10:41.337Z,-5.38
2023-02-07T08:13:08.545Z,-5.24
2023-02-07T08:15:35.142Z,-5.11
2023-02-07T08:18:01.771Z,-4.97
2023-02-07T08:20:28.497Z,-4.83
2023-02-07T08:22:55.040Z,-4.66
2023-02-07T08:25:21.572Z,-4.53
2023-02-07T08:27:48.190Z,-4.39
2023-02-07T08:30:15.770Z,-4.25
2023-02-07T08:32:42.745Z,-4.11
2023-02-07T08:35:09.723Z,-3.96
2023-02-07T08:37:36.653Z,-3.79
2023-02-07T08:40:05.270Z,-3.64
2023-02-07T08:42:31.943Z,-3.48
2023-02-07T08:44:58.538Z,-3.31
2023-02-07T08:47:25.349Z,-3.14
2023-02-07T08:49:51.982Z,-2.98
2023-02-07T08:52:18.624Z,-2.80
2023-02-07T08:54:45.237Z,-2.60
2023-02-07T08:57:11.888Z,-2.45
2023-02-07T08:59:38.463Z,-2.22
2023-02-07T09:02:05.113Z,-2.00
2023-02-07T09:04:31.676Z,-1.76
2023-02-07T09:06:58.357Z,-1.52
2023-02-07T09:09:25.212Z,-1.22
2023-02-07T09:11:51.922Z,-0.91
2023-02-07T09:14:18.758Z,-0.50
2023-02-07T09:16:45.455Z,-0.01
2023-02-07T09:19:12.082Z,0.42
2023-02-07T09:21:38.771Z,0.62
2023-02-07T09:24:05.548Z,1.01
2023-02-07T09:26:34.360Z,1.52
2023-02-07T09:29:01.081Z,2.13
2023-02-07T09:31:28.199Z,2.75
2023-02-07T09:33:54.850Z,3.29
2023-02-07T09:36:24.814Z,3.71
2023-02-07T09:38:51.789Z,4.07
2023-02-07T09:41:47.366Z,4.28
2023-02-07T09:44:17.178Z,4.43
2023-02-07T09:46:52.191Z,5.06
2023-02-07T09:49:35.686Z,5.44
2023-02-07T09:52:05.693Z,5.99
2023-02-07T09:54:42.190Z,6.29
2023-02-07T09:57:16.517Z,6.80
2023-02-07T09:59:49.640Z,6.93
2023-02-07T10:02:25.103Z,7.28
2023-02-07T10:04:56.673Z,7.88
2023-02-07T10:07:23.648Z,7.75
2023-02-07T10:09:50.233Z,7.71
2023-02-07T10:12:42.751Z,8.11
2023-02-07T10:15:20.259Z,8.39
2023-02-07T10:18:17.361Z,8.59
2023-02-07T10:20:55.377Z,9.13
2023-02-07T10:23:39.625Z,8.58
2023-02-07T10:26:36.864Z,8.86
2023-02-07T10:29:18.098Z,9.21
2023-02-07T10:31:49.113Z,9.03
2023-02-07T10:34:21.871Z,9.31
2023-02-07T10:36:51.011Z,9.44
2023-02-07T10:39:39.332Z,9.40
2023-02-07T10:42:05.953Z,9.09
2023-02-07T10:44:32.946Z,9.61
2023-02-07T10:47:02.163Z,9.86
2023-02-07T10:49:32.009Z,10.29
2023-02-07T10:52:10.689Z,10.48
2023-02-07T10:54:54.242Z,10.78
2023-02-07T10:57:22.028Z,10.38
2023-02-07T10:59:50.634Z,10.50
2023-02-07T11:02:29.346Z,10.52
2023-02-07T11:04:57.200Z,11.01
2023-02-07T11:07:25.070Z,11.19
2023-02-07T11:09:51.682Z,11.05
2023-02-07T11:12:22.698Z,11.01
2023-02-07T11:15:02.693Z,10.56
2023-02-07T11:17:29.838Z,11.24
2023-02-07T11:19:57.074Z,11.22
2023-02-07T11:22:24.879Z,11.12
2023-02-07T11:25:00.261Z,11.32
2023-02-07T11:27:27.449Z,12.02
2023-02-07T11:30:00.194Z,11.44
2023-02-07T11:32:28.503Z,11.36
2023-02-07T11:35:06.460Z,10.85
2023-02-07T11:37:38.938Z,11.19
2023-02-07T11:40:31.310Z,11.79
2023-02-07T11:43:12.940Z,11.63
2023-02-07T11:45:46.425Z,11.28
2023-02-07T11:48:24.301Z,11.82
2023-02-07T11:50:56.080Z,12.11
2023-02-07T11:53:27.102Z,12.54
2023-02-07T11:55:55.525Z,12.27
2023-02-07T11:58:41.205Z,12.11
2023-02-07T12:01:08.703Z,12.61
2023-02-07T12:03:45.083Z,12.40
2023-02-07T12:06:18.187Z,12.56
2023-02-07T12:08:45.829Z,12.76
2023-02-07T12:11:38.223Z,12.85
2023-02-07T12:14:21.053Z,12.74
2023-02-07T12:16:55.051Z,12.62
2023-02-07T12:19:28.257Z,12.49
2023-02-07T12:22:18.077Z,12.82
2023-02-07T12:25:14.097Z,13.08
2023-02-07T12:27:44.917Z,13.63
2023-02-07T12:30:26.153Z,13.31
2023-02-07T12:32:55.424Z,13.47
2023-02-07T12:35:51.946Z,13.19
2023-02-07T12:38:26.542Z,14.02
2023-02-07T12:41:12.684Z,13.55
2023-02-07T12:43:46.051Z,13.48
2023-02-07T12:46:29.246Z,12.35
2023-02-07T12:49:04.446Z,11.46
2023-02-07T12:52:03.918Z,12.72
2023-02-07T12:55:09.214Z,13.77
2023-02-07T12:57:45.478Z,13.83
2023-02-07T13:00:27.076Z,14.25
2023-02-07T13:03:33.228Z,13.99
2023-02-07T13:06:30.716Z,13.50
2023-02-07T13:09:10.007Z,13.44
2023-02-07T13:12:09.005Z,13.38
2023-02-07T13:15:21.721Z,12.97
2023-02-07T13:18:02.105Z,12.96
2023-02-07T13:20:40.591Z,12.80
2023-02-07T13:23:21.348Z,12.34
2023-02-07T13:25:53.288Z,12.46
2023-02-07T13:28:26.590Z,12.26
2023-02-07T13:30:54.401Z,12.32
2023-02-07T13:33:34.924Z,12.16
2023-02-07T13:36:28.178Z,12.22
2023-02-07T13:38:59.255Z,12.48
2023-02-07T13:41:36.858Z,12.64
2023-02-07T13:44:11.080Z,12.30
2023-02-07T13:47:15.864Z,12.68
2023-02-07T13:49:58.790Z,12.43
2023-02-07T13:52:34.799Z,12.13
2023-02-07T13:55:38.614Z,12.60
2023-02-07T13:58:53.154Z,11.76
2023-02-07T14:01:32.397Z,12.32
2023-02-07T14:04:06.798Z,12.49
2023-02-07T14:06:37.134Z,12.20
2023-02-07T14:09:17.464Z,11.45
2023-02-07T14:11:55.981Z,11.86
2023-02-07T14:14:25.220Z,11.86
2023-02-07T14:16:57.974Z,11.55
2023-02-07T14:19:54.737Z,10.54
2023-02-07T14:22:48.775Z,10.42
2023-02-07T14:25:39.512Z,10.46
2023-02-07T14:28:09.473Z,10.15
2023-02-07T14:30:49.656Z,10.17
2023-02-07T14:33:36.498Z,10.47
2023-02-07T14:36:17.271Z,10.84
2023-02-07T14:39:18.800Z,10.72
2023-02-07T14:41:48.078Z,10.24
2023-02-07T14:44:23.532Z,9.15
2023-02-07T14:46:56.033Z,9.44
2023-02-07T14:49:29.259Z,9.11
2023-02-07T14:52:11.254Z,8.66
2023-02-07T14:54:53.002Z,8.55
2023-02-07T14:57:56.529Z,8.47
2023-02-07T15:00:49.287Z,8.38
2023-02-07T15:03:21.371Z,7.78
2023-02-07T15:06:01.817Z,7.29
2023-02-07T15:08:32.511Z,7.30
2023-02-07T15:11:05.364Z,6.87
2023-02-07T15:13:39.190Z,6.69
2023-02-07T15:16:06.850Z,6.37
2023-02-07T15:18:42.564Z,6.00
2023-02-07T15:21:34.752Z,5.49
2023-02-07T15:24:27.284Z,5.33
2023-02-07T15:26:58.350Z,5.14
2023-02-07T15:29:28.872Z,4.74
2023-02-07T15:31:55.802Z,4.36
2023-02-07T15:34:31.695Z,4.30
2023-02-07T15:37:05.336Z,4.18
2023-02-07T15:39:32.052Z,4.28
2023-02-07T15:41:58.878Z,4.31
2023-02-07T15:44:30.496Z,4.21
2023-02-07T15:47:02.375Z,4.01
2023-02-07T15:49:34.736Z,3.68
2023-02-07T15:52:25.105Z,3.42
2023-02-07T15:54:54.459Z,2.93
2023-02-07T15:57:29.482Z,2.31
2023-02-07T16:00:02.150Z,2.33
2023-02-07T16:02:31.735Z,2.41
2023-02-07T16:05:16.512Z,2.06
2023-02-07T16:07:47.792Z,1.68
2023-02-07T16:10:20.404Z,1.38
2023-02-07T16:12:53.031Z,1.06
2023-02-07T16:15:30.418Z,1.12
2023-02-07T16:17:57.046Z,1.28
2023-02-07T16:20:24.891Z,0.95
2023-02-07T16:22:52.190Z,0.84
2023-02-07T16:25:26.379Z,0.66
2023-02-07T16:27:53.354Z,0.56
2023-02-07T16:30:24.903Z,0.60
2023-02-07T16:32:51.506Z,0.24
2023-02-07T16:35:21.127Z,-0.16
2023-02-07T16:37:48.232Z,-0.20
2023-02-07T16:40:15.263Z,-0.32
2023-02-07T16:42:42.456Z,-0.62
2023-02-07T16:45:21.875Z,-0.78
2023-02-07T16:47:48.636Z,-0.83
2023-02-07T16:50:20.909Z,-0.72
2023-02-07T16:52:52.078Z,-0.73
2023-02-07T16:55:20.699Z,-0.82
2023-02-07T16:57:49.191Z,-0.93
2023-02-07T17:00:26.567Z,-1.24
2023-02-07T17:02:53.933Z,-1.50
2023-02-07T17:05:24.079Z,-1.87
2023-02-07T17:07:51.165Z,-2.06
2023-02-07T17:10:31.412Z,-2.25
2023-02-07T17:12:58.092Z,-2.38
2023-02-07T17:15:24.665Z,-2.38
2023-02-07T17:17:53.185Z,-2.39
2023-02-07T17:20:26.880Z,-2.46
2023-02-07T17:22:54.008Z,-2.57
2023-02-07T17:25:22.299Z,-2.65
2023-02-07T17:27:48.954Z,-2.80
2023-02-07T17:30:33.373Z,-2.79
2023-02-07T17:32:59.952Z,-2.85
2023-02-07T17:35:26.517Z,-2.93
2023-02-07T17:37:53.600Z,-2.97
2023-02-07T17:40:20.078Z,-3.03
2023-02-07T17:42:46.656Z,-3.03
2023-02-07T17:45:13.210Z,-2.97
2023-02-07T17:47:39.828Z,-2.92
2023-02-07T17:50:08.119Z,-2.92
2023-02-07T17:52:35.002Z,-3.09
2023-02-07T17:55:01.538Z,-3.21
2023-02-07T17:57:28.092Z,-3.22
2023-02-07T17:59:54.669Z,-3.15
2023-02-07T18:02:21.274Z,-3.22
2023-02-07T18:04:47.836Z,-3.27
2023-02-07T18:07:14.672Z,-3.34
2023-02-07T18:09:41.299Z,-3.33
2023-02-07T18:12:08.104Z,-3.41
2023-02-07T18:14:34.683Z,-3.46
2023-02-07T18:17:01.296Z,-3.51
2023-02-07T18:19:28.177Z,-3.59
2023-02-07T18:21:54.820Z,-3.56
2023-02-07T18:24:22.164Z,-3.55
2023-02-07T18:26:48.997Z,-3.51
2023-02-07T18:29:16.613Z,-3.54
2023-02-07T18:31:43.740Z,-3.65
2023-02-07T18:34:10.485Z,-3.65
2023-02-07T18:36:40.662Z,-3.69
2023-02-07T18:39:09.306Z,-3.72
2023-02-07T18:41:36.653Z,-3.74
2023-02-07T18:44:03.941Z,-3.74
2023-02-07T18:46:31.999Z,-3.76
2023-02-07T18:48:59.220Z,-3.82
2023-02-07T18:51:27.026Z,-3.87
2023-02-07T18:53:56.768Z,-3.91
2023-02-07T18:56:25.698Z,-3.97
2023-02-07T18:58:53.216Z,-3.98
2023-02-07T19:01:20.862Z,-3.98
2023-02-07T19:03:54.441Z,-4.03
2023-02-07T19:06:23.151Z,-4.06
2023-02-07T19:08:50.215Z,-4.12
2023-02-07T19:11:17.267Z,-4.12
2023-02-07T19:13:43.973Z,-4.13
2023-02-07T19:16:16.015Z,-4.11
2023-02-07T19:18:42.571Z,-4.10
2023-02-07T19:21:12.313Z,-4.16
2023-02-07T19:23:39.989Z,-4.19
2023-02-07T19:26:07.470Z,-4.24
2023-02-07T19:28:35.592Z,-4.28
2023-02-07T19:31:07.323Z,-4.31
2023-02-07T19:33:35.620Z,-4.35
2023-02-07T19:36:11.195Z,-4.36
2023-02-07T19:38:38.588Z,-4.40
2023-02-07T19:41:06.425Z,-4.41
2023-02-07T19:43:33.660Z,-4.45
2023-02-07T19:46:00.299Z,-4.47
2023-02-07T19:48:27.342Z,-4.48
2023-02-07T19:51:00.554Z,-4.54
2023-02-07T19:53:28.655Z,-4.54
2023-02-07T19:56:02.037Z,-4.60
2023-02-07T19:58:30.305Z,-4.61
2023-02-07T20:00:57.928Z,-4.62
2023-02-07T20:03:25.653Z,-4.63
2023-02-07T20:05:53.051Z,-4.63
2023-02-07T20:08:20.767Z,-4.69
2023-02-07T20:10:48.447Z,-4.72
2023-02-07T20:13:15.980Z,-4.71
2023-02-07T20:15:47.188Z,-4.75
2023-02-07T20:18:14.210Z,-4.77
2023-02-07T20:20:47.149Z,-4.82
2023-02-07T20:23:14.729Z,-4.83
2023-02-07T20:25:41.393Z,-4.88
2023-02-07T20:28:08.738Z,-4.95
2023-02-07T20:30:36.324Z,-4.99
2023-02-07T20:33:03.002Z,-5.08
2023-02-07T20:35:29.622Z,-5.17
2023-02-07T20:37:56.764Z,-5.19
2023-02-07T20:40:23.345Z,-5.23
2023-02-07T20:42:49.909Z,-5.27
2023-02-07T20:45:16.844Z,-5.33
2023-02-07T20:47:43.464Z,-5.53
2023-02-07T20:50:10.102Z,-5.61
2023-02-07T20:52:39.766Z,-5.69
2023-02-07T20:55:07.017Z,-5.74
2023-02-07T20:57:33.532Z,-5.75
2023-02-07T21:00:00.117Z,-5.75
2023-02-07T21:02:26.758Z,-5.82
2023-02-07T21:04:53.362Z,-5.93
2023-02-07T21:07:19.932Z,-6.05
2023-02-07T21:09:46.594Z,-6.11
2023-02-07T21:12:13.296Z,-6.18
2023-02-07T21:14:40.531Z,-6.23
2023-02-07T21:17:07.490Z,-6.25
2023-02-07T21:19:35.792Z,-6.36
2023-02-07T21:22:02.505Z,-6.39
2023-02-07T21:24:29.119Z,-6.42
2023-02-07T21:26:56.196Z,-6.42
2023-02-07T21:29:23.336Z,-6.43
2023-02-07T21:31:50.813Z,-6.53
2023-02-07T21:34:21.116Z,-6.59
2023-02-07T21:36:49.148Z,-6.63
2023-02-07T21:39:16.629Z,-6.66
2023-02-07T21:41:44.987Z,-6.68
2023-02-07T21:44:13.049Z,-6.68
2023-02-07T21:46:41.801Z,-6.71
2023-02-07T21:49:14.586Z,-6.81
2023-02-07T21:51:45.660Z,-6.99
2023-02-07T21:54:12.248Z,-7.08
2023-02-07T21:56:40.966Z,-7.19
2023-02-07T21:59:14.094Z,-7.29
2023-02-07T22:01:41.282Z,-7.35
2023-02-07T22:04:12.237Z,-7.42
2023-02-07T22:06:43.296Z,-7.42
2023-02-07T22:09:13.367Z,-7.42
2023-02-07T22:11:40.566Z,-7.44
2023-02-07T22:14:07.290Z,-7.42
2023-02-07T22:16:34.934Z,-7.39
2023-02-07T22:19:04.181Z,-7.41
2023-02-07T22:21:33.661Z,-7.35
2023-02-07T22:24:00.701Z,-7.32
2023-02-07T22:26:28.524Z,-7.26
2023-02-07T22:28:57.395Z,-7.22
2023-02-07T22:31:26.982Z,-7.21
2023-02-07T22:33:55.034Z,-7.21
2023-02-07T22:36:24.953Z,-7.19
2023-02-07T22:38:51.506Z,-7.18
2023-02-07T22:41:18.329Z,-7.20
2023-02-07T22:43:45.072Z,-7.22
2023-02-07T22:46:15.339Z,-7.30
2023-02-07T22:48:42.300Z,-7.34
2023-02-07T22:51:14.696Z,-7.33
2023-02-07T22:53:41.952Z,-7.32
2023-02-07T22:56:09.403Z,-7.32
2023-02-07T22:58:36.900Z,-7.36
2023-02-07T23:01:05.111Z,-7.46
2023-02-07T23:03:32.375Z,-7.48
2023-02-07T23:06:03.989Z,-7.50
2023-02-07T23:08:30.645Z,-7.62
2023-02-07T23:10:57.223Z,-7.74
2023-02-07T23:13:23.851Z,-7.73
2023-02-07T23:15:50.388Z,-7.75
2023-02-07T23:18:16.976Z,-7.79
2023-02-07T23:20:44.888Z,-7.84
2023-02-07T23:23:12.619Z,-7.88
2023-02-07T23:25:43.872Z,-7.91
2023-02-07T23:28:10.859Z,-7.90
2023-02-07T23:30:37.974Z,-7.90
2023-02-07T23:33:06.307Z,-7.86
2023-02-07T23:35:33.440Z,-7.91
2023-02-07T23:38:01.797Z,-7.93
2023-02-07T23:40:29.542Z,-7.91
2023-02-07T23:42:56.249Z,-7.92
2023-02-07T23:45:22.950Z,-7.96
2023-02-07T23:47:49.549Z,-7.96
2023-02-07T23:50:16.239Z,-8.03
2023-02-07T23:52:42.805Z,-8.16
2023-02-07T23:55:09.362Z,-8.19
2023-02-07T23:57:36.053Z,-8.17
